Whispering Oaks, Illinois
Current Conditions -  °F | °C
As of 7:54 PM on Wednesday 26 Nov 2014 (Local Time) from KPIA Reporting Station
Light Snow Light Snow  
Wind Chill: 21°   Ceiling: 4100
Heat Index: 29°   Visibility: 2.5mi
Dew Point: 24°   Wind: 8mph
Humidity: 82%   Direction: 30°NNE
Pressure: 30.16"   Gusts: NA
Location:  40.5996°N, 89.5548°W
Report Text: KPIA 270154Z 03007KT 2 1/2SM -SN FEW012 SCT033 OVC041 M02/M04 A3016 RMK AO2 SLP221 P0001 T10171044
Loading
Personal Weather Stations






























Interactive Weather Map New forecast layout! Learn more

10-Day Weather Forecast

Advertisements
Track Severe Weather on mobile